ADDS METAR Data INFO
IDs: Format: Raw Decoded Include TAF

Data at: 0218 UTC 18 Jan 2018

PAVC 180214Z AUTO 28019G43KT 3/4SM -SN FEW010 BKN024 OVC030 M01/M04 A2964 RMK AO2 PK WND 27043/0207 P0000 FZRANO
PAVC 180209Z AUTO 28028G43KT 1 3/4SM -SN BKN024 OVC030 M01/M04 A2963 RMK AO2 PK WND 27043/0207 VIS 1/2V5 P0000 FZRANO
PAVC 180156Z AUTO 27030G48KT 8SM -SN FEW018 BKN023 OVC030 M01/M05 A2962 RMK AO2 PK WND 29048/0156 SLP034 P0000 T10111050 FZRANO
PAVC 180142Z AUTO 28024G47KT 6SM -SN SCT015 BKN021 OVC027 M01/M05 A2962 RMK AO2 PK WND 28047/0133 PRESRR P0000 FZRANO
PAVC 180133Z AUTO 28032G47KT 2SM -SN BKN015 BKN021 OVC026 M01/M04 A2961 RMK AO2 PK WND 28047/0133 VIS 1V5 P0000 FZRANO
PAVC 180125Z AUTO 28030G47KT 1SM -SN FEW007 BKN017 OVC023 M01/M04 A2959 RMK AO2 PK WND 27047/0121 VIS 1/2V2 P0000 FZRANO
PAVC 180108Z AUTO 29029G39KT 3/4SM -SN FEW007 BKN013 OVC025 M01/M04 A2960 RMK AO2 PK WND 28039/0105 P0000 FZRANO
PAVC 180103Z AUTO 29027G40KT 1/2SM -SN FZFG FEW005 BKN015 OVC020 M02/M03 A2961 RMK AO2 PK WND 29039/0100 P0000 FZRANO
PAVC 180056Z AUTO 29028G42KT 3/4SM -SN BR FEW005 BKN015 OVC020 M01/M03 A2961 RMK AO2 PK WND 29042/0052 SLP031 P0000 T10111033 FZRANO
PAVC 180049Z AUTO 29021G38KT 1 3/4SM -SN SCT015 BKN021 OVC026 M01/M03 A2961 RMK AO2 PK WND 27042/0006 VIS 1 1/4V3 P0000 FZRANO
PAVC 180039Z AUTO 28025G38KT 1SM -SN FEW010 BKN016 OVC023 M01/M04 A2961 RMK AO2 PK WND 27042/0006 P0000 FZRANO
PAVC 180022Z AUTO 30025G39KT 1 1/4SM -SN BR FEW010 OVC023 M01/M03 A2961 RMK AO2 PK WND 27042/0006 VIS 3/4V3 P0000 FZRANO
PAVC 180013Z AUTO 28028G42KT 3/4SM -SN FEW012 BKN023 OVC028 M01/M03 A2960 RMK AO2 PK WND 27042/0006 P0000 FZRANO
PAVC 180008Z AUTO 28033G42KT 1 3/4SM -SN BKN023 OVC028 M01/M04 A2959 RMK AO2 PK WND 27042/0006 VIS 3/4V5 P0000 FZRANO
PAVC 172356Z AUTO 28024G36KT 6SM -SN FEW012 BKN023 OVC028 M01/M04 A2960 RMK AO2 PK WND 29043/2340 SLP028 P0000 60000 T10061039 10000 21011 53009 FZRANO
PAVC 172351Z AUTO 29024G36KT 3SM -SN FEW012 BKN021 OVC028 M01/M03 A2960 RMK AO2 PK WND 29043/2340 P0000 FZRANO
PAVC 172346Z AUTO 29025G43KT 1 1/4SM -SN FEW012 BKN021 OVC026 M01/M03 A2961 RMK AO2 PK WND 29043/2340 VIS 1/2V4 P0000 FZRANO
PAVC 172326Z AUTO 28028G42KT 3/4SM -SN SCT014 BKN021 OVC026 M01/M03 A2960 RMK AO2 PK WND 28042/2326 VIS 1/2V5 P0000 FZRANO
PAVC 172322Z AUTO 28027G41KT 1 3/4SM -SN FEW011 SCT017 OVC024 M01/M04 A2961 RMK AO2 PK WND 27042/2307 VIS 1/2V5 P0000 FZRANO
PAVC 172315Z AUTO 28029G42KT 3SM -SN FEW011 SCT018 OVC024 M01/M03 A2959 RMK AO2 PK WND 27042/2307 P0000 FZRANO
PAVC 172304Z AUTO 30028G37KT 1 1/4SM -SN BR SCT013 OVC022 M01/M03 A2959 RMK AO2 PK WND 29037/2303 P0000 FZRANO
PAVC 172302Z AUTO 29029G42KT 1SM -SN BR BKN013 OVC022 M01/M03 A2959 RMK AO2 PK WND 29037/2302 P0000 FZRANO
PAVC 172256Z AUTO 28024G46KT 3/4SM -SN BR BKN015 OVC020 M01/M03 A2959 RMK AO2 PK WND 29050/2219 SLP026 P0000 T10061028 FZRANO
PAVC 172254Z AUTO 29034G46KT 1/2SM -SN FZFG OVC015 M01/M03 A2959 RMK AO2 PK WND 29050/2219 P0000 FZRANO
PAVC 172238Z AUTO 28029G41KT 3/4SM -SN BKN011 OVC020 M01/M03 A2959 RMK AO2 PK WND 29050/2219 VIS 1/2V1 3/4 P0000 FZRANO
PAVC 172234Z AUTO 29030G45KT 1SM -SN BR SCT011 OVC015 M01/M03 A2959 RMK AO2 PK WND 29050/2219 VIS 1/2V1 3/4 P0000 FZRANO
PAVC 172205Z AUTO 29031G46KT 1/2SM -SN FZFG FEW008 BKN012 OVC018 M01/M03 A2957 RMK AO2 PK WND 27046/2200 P0000 FZRANO
PAVC 172156Z AUTO 27031G37KT 1/2SM SN FZFG BKN010 OVC017 M01/M03 A2957 RMK AO2 PK WND 29056/2110 CIG 007V013 SLP018 P0000 T10061028 FZRANO
PAVC 172140Z AUTO 29037G45KT 3/4SM -SN BR FEW008 BKN012 OVC018 M01/M03 A2956 RMK AO2 PK WND 29056/2110 P0000 FZRANO
PAVC 172136Z AUTO 28031G45KT 1/2SM -SN FZFG FEW006 BKN016 OVC021 M01/M03 A2955 RMK AO2 PK WND 29056/2110 P0000 FZRANO
PAVC 172125Z AUTO 29030G49KT 1/2SM -SN FZFG SCT008 BKN014 OVC020 M01/M03 A2956 RMK AO2 PK WND 29056/2110 P0000 FZRANO
PAVC 172123Z AUTO 29037G49KT 1/4SM -SN FZFG BKN009 OVC015 M01/M03 A2955 RMK AO2 PK WND 29056/2110 CIG 004V011 P0000 FZRANO
PAVC 172110Z AUTO 29040G56KT 1/2SM -SN FZFG FEW005 BKN009 OVC015 M01/M03 A2953 RMK AO2 PK WND 29056/2110 CIG 006V011 P0000 FZRANO
PAVC 172056Z AUTO 29037G49KT 1/4SM SN FZFG FEW007 BKN012 OVC018 M01/M03 A2954 RMK AO2 PK WND 32056/2008 SLP008 P0000 60000 T10061028 50011 FZRANO
PAVC 172054Z AUTO 30036G48KT 1/2SM -SN FZFG FEW007 BKN012 OVC018 M01/M03 A2955 RMK AO2 PK WND 32056/2008 P0000 FZRANO
PAVC 172047Z AUTO 29032G48KT 1/2SM -SN FZFG BKN012 OVC017 M01/M03 A2955 RMK AO2 PK WND 32056/2008 P0000 FZRANO
PAVC 172040Z AUTO 29028G48KT 3/4SM -SN FEW005 OVC015 M01/M03 A2955 RMK AO2 PK WND 32056/2008 VIS 1/4V3 P0000 FZRANO
PAVC 172034Z AUTO 29031G48KT 1 1/4SM -SN FEW005 OVC015 M01/M03 A2955 RMK AO2 PK WND 32056/2008 VIS 3/4V3 P0000 FZRANO
PAVC 172030Z AUTO 29036G47KT 3/4SM -SN FEW008 OVC015 M01/M03 A2954 RMK AO2 PK WND 32056/2008 P0000 FZRANO
PAVC 172023Z AUTO 29027G47KT 1/2SM SN OVC015 M01/M03 A2955 RMK AO2 PK WND 32056/2008 P0000 FZRANO
PAVC 172011Z AUTO 29034G56KT 1SM -SN FEW007 BKN015 OVC022 M01/M04 A2955 RMK AO2 PK WND 32056/2008 VIS 1/2V1 3/4 P0000 FZRANO
PAVC 172003Z AUTO 29035G47KT 1 1/4SM -SN FEW007 BKN015 OVC022 00/M03 A2953 RMK AO2 PK WND 29047/2003 VIS 3/4V2 1/2 P0000 FZRANO
PAVC 171956Z AUTO 29033G49KT 1SM -SN FEW007 BKN013 OVC020 M01/M03 A2953 RMK AO2 PK WND 29054/1923 VIS 1/2V2 1/2 SLP005 P0000 T10061033 FZRANO
PAVC 171954Z AUTO 30030G49KT 1SM -SN FEW007 BKN013 BKN018 M01/M03 A2954 RMK AO2 PK WND 29054/1923 P0000 FZRANO
PAVC 171942Z AUTO 30035G51KT 1 1/4SM -SN SCT008 BKN016 M01/M04 A2952 RMK AO2 PK WND 29054/1923 P0000 FZRANO
PAVC 171933Z AUTO 29040G52KT 1SM -SN FEW004 BKN012 BKN017 M01/M03 A2951 RMK AO2 PK WND 29054/1923 VIS 1/4V5 P0000 FZRANO
PAVC 171930Z AUTO 28031G54KT 3/4SM -SN SQ FEW004 BKN010 BKN015 M01/M03 A2951 RMK AO2 PK WND 29054/1923 VIS 1/4V5 P0000 FZRANO
PAVC 171920Z AUTO 28033G49KT 3/4SM -SN BR FEW008 OVC014 M01/M03 A2952 RMK AO2 PK WND 30052/1858 VIS 1/4V2 1/2 P0000 FZRANO
PAVC 171911Z AUTO 29027G47KT 1/2SM -SN FZFG BKN010 OVC016 M01/M03 A2951 RMK AO2 PK WND 30052/1858 CIG 007V012 P0000 FZRANO
PAVC 171856Z AUTO 29034G51KT 1/2SM -SN FZFG SCT010 BKN016 OVC022 M01/M03 A2951 RMK AO2 PK WND 30054/1829 SLP997 P0000 T10061028 FZRANO
PAVC 171850Z AUTO 29042G51KT 1/2SM -SN FZFG SCT010 BKN016 OVC022 M01/M03 A2950 RMK AO2 PK WND 30054/1829 P0000 FZRANO
PAVC 171848Z AUTO 28036G51KT 1SM -SN SCT008 BKN016 OVC022 M01/M03 A2950 RMK AO2 PK WND 30054/1829 P0000 FZRANO
PAVC 171834Z AUTO 30038G54KT 1 1/4SM -SN FEW008 BKN014 OVC020 M01/M03 A2950 RMK AO2 PK WND 30054/1829 P0000 FZRANO
PAVC 171831Z AUTO 30039G54KT 3/4SM -SN BR SCT008 OVC014 M01/M03 A2950 RMK AO2 PK WND 30054/1829 P0000 FZRANO
PAVC 171824Z AUTO 30034G53KT 1SM -SN BR SCT010 OVC017 M01/M03 A2950 RMK AO2 PK WND 31053/1822 P0000 FZRANO
PAVC 171803Z AUTO 29035G51KT 1 1/4SM -SN BR SCT007 BKN013 OVC020 M01/M03 A2950 RMK AO2 PK WND 32051/1759 VIS 1/2V5 P0000 FZRANO
PAVC 171756Z AUTO 29030G51KT 1 1/4SM -SN BR FEW003 BKN009 OVC015 M01/M03 A2950 RMK AO2 PK WND 28054/1713 CIG 006V012 SLP996 P0000 60000 T10061028 10000 21011 52011 FZRANO
PAVC 171752Z AUTO 28035G51KT 3/4SM -SN BR BKN008 BKN012 OVC017 M01/M02 A2949 RMK AO2 PK WND 28054/1713 CIG 003V009 P0000 FZRANO
PAVC 171743Z AUTO 29037G50KT 3/4SM -SN BR SCT008 OVC013 M01/M02 A2950 RMK AO2 PK WND 28054/1713 P0000 FZRANO
PAVC 171741Z AUTO 30034G45KT 1 1/4SM -SN BR BKN008 OVC015 M01/M02 A2950 RMK AO2 PK WND 28054/1713 VIS 1/2V2 CIG 003V012 P0000 FZRANO
PAVC 171727Z AUTO 29033G48KT 3/4SM -SN BR BKN006 BKN009 OVC015 M01/M02 A2948 RMK AO2 PK WND 28054/1713 CIG 003V008 P0000 FZRANO
PAVC 171720Z AUTO 29040G54KT 1SM -SN BR SCT004 BKN014 OVC019 M01/M02 A2948 RMK AO2 PK WND 28054/1713 P0000 FZRANO
PAVC 171717Z AUTO 29034G54KT 1SM -SN BR BKN004 BKN013 OVC019 M01/M02 A2949 RMK AO2 PK WND 28054/1713 CIG 003V009 P0000 FZRANO
PAVC 171714Z AUTO 28035G54KT 1/2SM SN FZFG SCT004 BKN008 OVC013 M01/M02 A2948 RMK AO2 PK WND 28054/1713 CIG 006V009 P0000 FZRANO
PAVC 171710Z AUTO 29037G50KT 1/4SM +SN FZFG BKN004 BKN008 OVC013 M01/M02 A2948 RMK AO2 PK WND 30050/1710 P0000 FZRANO
PAVC 171703Z AUTO 30035G47KT 1/2SM SN FZFG FEW004 BKN008 OVC013 M01/M02 A2948 RMK AO2 PK WND 28046/1657 P0000 FZRANO
PAVC 171656Z AUTO 29038G47KT 3/4SM -SN BR FEW006 BKN011 OVC015 M01/M02 A2948 RMK AO2 PK WND 30049/1635 SLP988 P0000 T10061022 FZRANO
PAVC 171653Z AUTO 29031G45KT 3/4SM -SN BR FEW006 BKN011 OVC017 M01/M02 A2949 RMK AO2 PK WND 30049/1635 P0000 FZRANO
PAVC 171650Z AUTO 29035G45KT 1SM -SN BR FEW008 OVC015 M01/M02 A2949 RMK AO2 PK WND 30049/1635 P0000 FZRANO
PAVC 171632Z AUTO 29032G48KT 1 1/2SM -SN BR SCT007 OVC014 M01/M02 A2949 RMK AO2 PK WND 30048/1624 P0000 FZRANO
PAVC 171625Z AUTO 30036G48KT 1SM -SN BR BKN007 OVC013 M01/M02 A2948 RMK AO2 PK WND 30048/1624 CIG 004V010 P0000 FZRANO
PAVC 171613Z AUTO 30037G48KT 1/2SM SN FZFG BKN007 OVC013 M01/M02 A2947 RMK AO2 PK WND 29048/1609 CIG 004V009 P0000 FZRANO
PAVC 171556Z AUTO 30034G51KT 250V310 3/4SM -SN BR BKN007 OVC015 M01/M02 A2947 RMK AO2 PK WND 29054/1537 CIG 004V009 SLP985 P0000 T10061022 FZRANO
PAVC 171553Z AUTO 30038G51KT 3/4SM -SN BR SCT007 BKN013 OVC023 M01/M02 A2947 RMK AO2 PK WND 29054/1537 P0000 FZRANO
PAVC 171537Z AUTO 28032G54KT 1SM -SN BR FEW007 OVC015 00/M02 A2946 RMK AO2 PK WND 29054/1537 P0000 FZRANO
PAVC 171532Z AUTO 29028G53KT 1 3/4SM -SN BKN015 OVC020 00/M03 A2946 RMK AO2 PK WND 28053/1528 P0000 FZRANO
PAVC 171522Z AUTO 28035G50KT 2SM -SN FEW009 BKN013 OVC019 00/M03 A2945 RMK AO2 PK WND 30052/1502 P0000 FZRANO
PAVC 171510Z AUTO 29039G52KT 1SM -SN SCT007 OVC013 00/M03 A2944 RMK AO2 PK WND 30052/1502 VIS 1/2V4 P0000 FZRANO
PAVC 171503Z AUTO 29040G55KT 2SM -SN BR FEW007 BKN013 OVC018 00/M02 A2944 RMK AO2 PK WND 30052/1502 VIS 1V3 P0000 FZRANO
PAVC 171459Z AUTO 30038G62KT 1SM -SN BR FEW007 BKN015 OVC020 00/M02 A2943 RMK AO2 PK WND 29046/1457 P0000 FZRANO
PAVC 171456Z AUTO 29037G62KT 3/4SM -SN BR SCT007 BKN013 OVC018 M01/M02 A2943 RMK AO2 PK WND 31062/1453 SLP972 P0000 60000 T10061022 53004 FZRANO
PAVC 171453Z AUTO 30041G62KT 3/4SM -SN BR SCT009 OVC015 M01/M03 A2942 RMK AO2 PK WND 31062/1453 P0000 FZRANO
PAVC 171449Z AUTO 29036G54KT 1 1/2SM -SN BR SQ FEW007 OVC015 00/M02 A2944 RMK AO2 PK WND 30054/1444 VIS 3/4V2 1/2 P0000 FZRANO
PAVC 171426Z AUTO 30040G50KT 1 3/4SM -SN BR FEW007 OVC015 00/M02 A2943 RMK AO2 PK WND 29053/1408 P0000 FZRANO
PAVC 171419Z AUTO 30037G50KT 2 1/2SM -SN SCT011 OVC017 00/M03 A2943 RMK AO2 PK WND 29053/1408 VIS 1 1/2V5 P0000 FZRANO
PAVC 171415Z AUTO 29039G53KT 3SM -SN BKN011 OVC017 00/M03 A2943 RMK AO2 PK WND 29053/1408 CIG 007V013 P0000 FZRANO
PAVC 171356Z AUTO 29039G55KT 1 1/4SM -SN BR SCT008 OVC014 00/M02 A2943 RMK AO2 PK WND 30055/1350 UPB22E28B46E50SNE22B28E46B50 SLP972 P0000 T00001022 FZRANO
PAVC 171353Z AUTO 29031G55KT 1 1/2SM -SN BKN010 OVC016 00/M03 A2944 RMK AO2 PK WND 30055/1350 VIS 3/4V5 UPB22E28B46E50SNE22B28E46B50 CIG 006V013 P0000 FZRANO
PAVC 171336Z AUTO 29035G48KT 5SM -SN SCT007 OVC014 00/M03 A2942 RMK AO2 PK WND 30053/1308 UPB22E28SNE22B28 P0000 FZRANO
PAVC 171310Z AUTO 29036G53KT 5SM -SN SCT008 OVC015 00/M03 A2942 RMK AO2 PK WND 30053/1308 P0000 FZRANO
PAVC 171302Z AUTO 29040G56KT 2 1/2SM -SN FEW008 BKN013 OVC020 00/M03 A2942 RMK AO2 PK WND 28048/1301 VIS 1 1/2V5 P0000 FZRANO
PAVC 171256Z AUTO 29039G56KT 2 1/2SM -SN SCT010 BKN015 OVC020 00/M03 A2942 RMK AO2 PK WND 28056/1256 UPB53E55SNE53B55 SLP966 P0000 T00001028 FZRANO
PAVC 171251Z AUTO 29033G54KT 3SM -SN SCT010 OVC015 00/M03 A2943 RMK AO2 PK WND 29055/1213 P0000 FZRANO
PAVC 171246Z AUTO 29034G54KT 2 1/2SM -SN BKN010 OVC015 00/M03 A2942 RMK AO2 PK WND 29055/1213 VIS 2V5 CIG 007V013 P0000 FZRANO
PAVC 171238Z AUTO 29030G50KT 1 1/2SM -SN BR SCT010 BKN015 OVC020 00/M02 A2944 RMK AO2 PK WND 29055/1213 VIS 3/4V4 P0000 FZRANO
PAVC 171232Z AUTO 29031G50KT 1SM -SN BR FEW007 BKN013 OVC020 00/M02 A2943 RMK AO2 PK WND 29055/1213 P0000 FZRANO
PAVC 171220Z AUTO 29038G55KT 2SM -SN SCT009 BKN013 OVC019 00/M03 A2943 RMK AO2 PK WND 29055/1213 VIS 1 3/4V3 P0000 FZRANO
PAVC 171208Z AUTO 30032G50KT 3SM -SN BKN009 OVC016 00/M03 A2943 RMK AO2 PK WND 29050/1203 CIG 005V013 P0000 FZRANO
PAVC 171205Z AUTO 29034G50KT 2SM -SN FEW007 BKN012 OVC018 00/M03 A2942 RMK AO2 PK WND 29050/1203 VIS 1V5 P0000 FZRANO
PAVC 171202Z AUTO 29033G46KT 1 1/4SM -SN BKN010 OVC016 00/M03 A2942 RMK AO2 PK WND 31046/1202 CIG 006V013 P0000 FZRANO
PAVC 171156Z AUTO 29040G45KT 3/4SM -SN BR OVC010 00/M02 A2942 RMK AO2 PK WND 29053/1115 UPE13SNB13 CIG 006V014 SLP968 P0000 60000 T00001022 10017 21006 53008 FZRANO
PAVC 171149Z AUTO 29029G49KT 3/4SM -SN BR BKN008 OVC013 M01/M02 A2943 RMK AO2 PK WND 29053/1115 UPE13SNB13 CIG 006V010 PRESRR P0000 FZRANO
PAVC 171142Z AUTO 29035G50KT 1 3/4SM -SN FEW005 BKN010 OVC015 00/M03 A2942 RMK AO2 PK WND 29053/1115 UPE13SNB13 P0000 FZRANO
PAVC 171126Z AUTO 29035G46KT 1 1/4SM -SN BR FEW005 OVC013 00/M02 A2942 RMK AO2 PK WND 29053/1115 UPE13SNB13 P0000 FZRANO
PAVC 171116Z AUTO 29039G53KT 3/4SM -SN BR SCT007 OVC013 00/M02 A2941 RMK AO2 PK WND 29053/1115 UPE13SNB13 P0000 FZRANO
PAVC 171112Z AUTO 28034G47KT 1 3/4SM UP SCT007 OVC013 00/M03 A2941 RMK AO2 PK WND 30049/1101 P0000 FZRANO
PAVC 171106Z AUTO 29039G49KT 5SM UP SCT009 OVC013 00/M03 A2941 RMK AO2 PK WND 30049/1101 P0000 FZRANO
PAVC 171056Z AUTO 29040G55KT 3SM UP FEW004 BKN009 OVC013 00/M03 A2941 RMK AO2 PK WND 30057/1008 UPE25B45SNB25E45 CIG 007V011 SLP963 P0000 T00001028 FZRANO
PAVC 170956Z AUTO 29037G56KT 4SM UP BKN006 BKN010 BKN014 00/M03 A2939 RMK AO2 PK WND 29056/0948 RAB0857E53UPB53SNE0857B14E29 CIG 004V009 SLP957 P0000 T00001028 FZRANO
PAVC 170935Z AUTO 30037G53KT 8SM -RA FEW009 BKN014 01/M03 A2939 RMK AO2 PK WND 29054/0859 RAB0857SNE0857B14E29 P0000 FZRANO
PAVC 170908Z AUTO 30040G54KT 4SM -RA BKN011 OVC019 01/M03 A2938 RMK AO2 PK WND 29054/0859 RAB0857SNE0857 P0000 FZRANO
PAVC 170904Z AUTO 29035G54KT 2 1/2SM -RA BKN009 OVC015 01/M03 A2939 RMK AO2 PK WND 29054/0859 VIS 2V4 RAB0857SNE0857 CIG 007V013 P0000 FZRANO
PAVC 170856Z AUTO 30034G48KT 2 1/2SM -SN SCT009 OVC017 01/M03 A2939 RMK AO2 PK WND 29057/0802 VIS 2V4 RAE0759B43E48SNB0759 SLP958 P0000 60000 T00061028 400281028 53010 FZRANO
PAVC 170841Z AUTO 30031G52KT 3SM -SN FEW004 SCT008 OVC018 01/M02 A2939 RMK AO2 PK WND 29057/0802 RAE0759SNB0759 P0000 FZRANO
PAVC 170835Z AUTO 30037G53KT 2SM -SN FEW004 BKN008 OVC021 01/M02 A2939 RMK AO2 PK WND 29057/0802 RAE0759SNB0759 CIG 007V011 P0000 FZRANO
PAVC 170817Z AUTO 29030G50KT 1 3/4SM -SN FEW006 OVC012 01/M02 A2939 RMK AO2 PK WND 29057/0802 VIS 1 1/4V3 RAE0759SNB0759 P0000 FZRANO
PAVC 170802Z AUTO 30040G57KT 2SM -SN BR FEW006 BKN010 OVC013 01/M02 A2937 RMK AO2 PK WND 29057/0802 RAE0759SNB0759 CIG 008V012 P0000 FZRANO
PAVC 170756Z AUTO 29035G47KT 4SM -RA BKN008 OVC016 01/M02 A2937 RMK AO2 PK WND 31051/0657 RAB25 CIG 004V011 SLP952 P0000 T00061022 FZRANO
PAVC 170735Z AUTO 30033G47KT 4SM -RA FEW006 SCT010 OVC019 01/M02 A2938 RMK AO2 PK WND 31051/0657 RAB25 P0000 FZRANO
PAVC 170723Z AUTO 29034G50KT 3SM BR BKN006 BKN013 OVC018 01/M01 A2938 RMK AO2 PK WND 31051/0657 CIG 004V010 FZRANO
PAVC 170716Z AUTO 29036G48KT 1 1/4SM BR BKN006 BKN013 OVC018 01/M01 A2937 RMK AO2 PK WND 31051/0657 CIG 004V009 PWINO FZRANO $
PAVC 170713Z AUTO 29034G47KT 3/4SM BR BKN006 OVC013 01/M01 A2937 RMK AO2 PK WND 31051/0657 CIG 004V010 PWINO FZRANO $
PAVC 170702Z AUTO 28025G51KT 1/2SM FG BKN006 BKN013 01/M01 A2938 RMK AO2 PK WND 31051/0657 CIG 004V010 PWINO FZRANO $
PAVC 170654Z AUTO 29030G46KT 1 1/2SM BR SCT005 BKN008 BKN013 01/M01 A2937 RMK AO2 PK WND 31049/0641 VIS 1V4 PWINO FZRANO $
PAVC 170651Z AUTO 30037G48KT 2 1/2SM HZ FEW004 SCT008 BKN013 01/M02 A2936 RMK AO2 PK WND 31049/0641 VIS 1V5 PWINO FZRANO $
PAVC 170637Z AUTO 29040G48KT 5SM HZ SCT006 SCT015 02/M02 A2934 RMK AO2 PK WND 29048/0629 PWINO FZRANO $
PAVC 170629Z AUTO 29038G48KT 7SM FEW006 SCT010 BKN015 02/M03 A2934 RMK AO2 PK WND 29048/0629 PWINO FZRANO $
PAVC 170617Z AUTO 30034G43KT 8SM SCT010 BKN015 02/M02 A2936 RMK AO2 PK WND 29048/0601 PWINO FZRANO $
PAVC 170558Z AUTO 30034G47KT 10SM SCT011 SCT017 02/M02 A2934 RMK AO2 PK WND 31042/0558 PWINO FZRANO $
PAVC 170556Z AUTO 29024G47KT 10SM SCT011 BKN017 02/M02 A2936 RMK AO2 PK WND 29052/0526 RAB09E12UPB13UPEMM SLP948 P0000 60000 T00171022 10028 20017 53009 PWINO FZRANO $
PAVC 170544Z AUTO 29037G48KT 10SM FEW007 BKN013 BKN017 02/M02 A2934 RMK AO2 PK WND 29052/0526 RAB09E12UPB13UPEMM P0000 PWINO FZRANO $
PAVC 170537Z AUTO 29040G48KT 2 1/2SM HZ SCT007 OVC013 02/M02 A2934 RMK AO2 PK WND 29052/0526 RAB09E12UPB13UPEMM P0000 PWINO FZRANO $
PAVC 170521Z AUTO 30030G40KT 1 1/2SM HZ BKN007 BKN011 02/M02 A2935 RMK AO2 PK WND 31047/0459 RAB09E12UPB13UPEMM CIG 002V008 P0000 PWINO FZRANO $
PAVC 170513Z AUTO 29033G43KT 1 3/4SM UP BKN005 BKN011 02/M01 A2935 RMK AO2 PK WND 31047/0459 RAB09E12UPB13 CIG 002V008 P0000 FZRANO
PAVC 170508Z AUTO 31034G47KT 3SM HZ BKN005 02/M02 A2935 RMK AO2 PK WND 31047/0459 CIG 002V008 FZRANO
PAVC 170456Z AUTO 30031G44KT 4SM HZ SCT005 BKN012 02/M02 A2934 RMK AO2 PK WND 30044/0453 SLP941 T00221022 PWINO FZRANO $
PAVC 170356Z AUTO 29029G39KT 10SM FEW008 03/M02 A2933 RMK AO2 PK WND 29041/0338 SLP939 T00281022 PWINO $
PAVC 170256Z AUTO 30020G29KT 10SM FEW007 SCT015 02/M02 A2935 RMK AO2 PK WND 28032/0230 SLP945 60000 T00221022 50000 PWINO FZRANO $
PAVC 170252Z AUTO 31020G29KT 10SM FEW007 SCT015 02/M02 A2936 RMK AO2 PK WND 28032/0230 PWINO FZRANO $
PAVC 170238Z AUTO 28012G32KT 220V320 8SM FEW007 SCT015 BKN019 02/M02 A2935 RMK AO2 PK WND 28032/0230 PWINO FZRANO $
PAVC 170156Z AUTO 31015G27KT 10SM FEW010 SCT020 SCT025 03/M02 A2935 RMK AO2 PK WND 28027/0149 UPB07E08 SLP945 P0000 T00281017 PWINO $
PAVC 170132Z AUTO 29010G18KT 230V320 8SM FEW008 BKN022 OVC030 02/M01 A2936 RMK AO2 PK WND 29027/0115 UPB07E08 P0000 PWINO FZRANO $
PAVC 170114Z AUTO 28014G23KT 250V330 10SM FEW009 SCT018 BKN033 02/M01 A2935 RMK AO2 UPB07E08 P0000 FZRANO
PAVC 170056Z AUTO 28011G16KT 10SM FEW026 BKN032 BKN039 02/M02 A2935 RMK AO2 RAE01B29RAEMM SLP945 P0000 T00221017 FZRANO
PAVC 170047Z AUTO 28009G17KT 230V330 10SM BKN030 BKN036 03/M02 A2935 RMK AO2 RAE01B29RAEMM P0000
PAVC 162356Z AUTO 27007G19KT 230V300 10SM -RA BKN025 OVC033 02/M01 A2936 RMK AO2 RAEMMB46 SLP946 P0000 60000 T00221011 10022 21006 58004 FZRANO
PAVC 162256Z AUTO 24008KT 10SM -RA BKN025 OVC031 02/M01 A2936 RMK AO2 RAB55 SLP948 P0000 T00221011 FZRANO
PAVC 162233Z AUTO 24007G16KT 10SM BKN029 OVC039 02/M01 A2937 RMK AO2 FZRANO
PAVC 162156Z AUTO 25012G16KT 210V270 10SM OVC037 02/M02 A2936 RMK AO2 SLP948 T00221017 PWINO FZRANO
PAVC 162056Z AUTO 26013G19KT 10SM FEW029 02/M02 A2937 RMK AO2 SLP950 T00171017 50004 FZRANO
PAVC 161956Z AUTO 26011KT 10SM CLR 01/M02 A2937 RMK AO2 SLP951 T00061017 FZRANO
PAVC 161856Z AUTO 26007KT 10SM CLR 00/M01 A2936 RMK AO2 SLP949 T00001006 FZRANO
PAVC 161756Z AUTO 25007G15KT 10SM CLR M01/M01 A2935 RMK AO2 SLP945 T10061006 10000 21028 56004 PWINO FZRANO $